createdAt,value
2019-05-22T00:00:38.073Z,0.00
2019-05-22T00:01:38.041Z,0.00
2019-05-22T00:02:38.030Z,0.00
2019-05-22T00:03:38.020Z,0.00
2019-05-22T00:04:38.011Z,0.00
2019-05-22T00:05:38.017Z,0.00
2019-05-22T00:06:37.986Z,0.00
2019-05-22T00:07:37.974Z,0.00
2019-05-22T00:08:37.963Z,0.00
2019-05-22T00:09:37.951Z,0.00
2019-05-22T00:10:37.963Z,0.00
2019-05-22T00:11:37.930Z,0.00
2019-05-22T00:12:46.584Z,0.00
2019-05-22T00:13:38.907Z,0.00
2019-05-22T00:14:37.897Z,0.00
2019-05-22T00:15:38.732Z,0.00
2019-05-22T00:16:37.897Z,0.00
2019-05-22T00:17:37.864Z,0.00
2019-05-22T00:18:37.852Z,0.00
2019-05-22T00:19:37.842Z,0.00
2019-05-22T00:20:37.830Z,0.00
2019-05-22T00:21:37.843Z,0.00
2019-05-22T00:22:37.811Z,0.00
2019-05-22T00:23:37.802Z,0.00
2019-05-22T00:24:37.785Z,0.00
2019-05-22T00:25:37.780Z,0.00
2019-05-22T00:26:37.785Z,0.00
2019-05-22T00:27:37.797Z,0.00
2019-05-22T00:28:37.740Z,0.00
2019-05-22T00:29:37.731Z,0.00
2019-05-22T00:30:37.719Z,0.00
2019-05-22T00:31:37.729Z,0.00
2019-05-22T00:32:37.696Z,0.00
2019-05-22T00:33:37.690Z,0.00
2019-05-22T00:34:37.674Z,0.00
2019-05-22T00:35:37.672Z,0.00
2019-05-22T00:36:37.676Z,0.00
2019-05-22T00:37:37.645Z,0.00
2019-05-22T00:38:37.629Z,0.00
2019-05-22T00:39:37.619Z,0.00
2019-05-22T00:40:37.611Z,0.00
2019-05-22T00:41:37.622Z,0.00
2019-05-22T00:42:37.588Z,0.00
2019-05-22T00:43:37.574Z,0.00
2019-05-22T00:44:37.581Z,0.00
2019-05-22T00:45:37.595Z,0.00
2019-05-22T00:46:37.563Z,0.00
2019-05-22T00:47:37.529Z,0.00
2019-05-22T00:48:37.520Z,0.00
2019-05-22T00:49:37.512Z,0.00
2019-05-22T00:50:37.499Z,0.00
2019-05-22T00:51:37.508Z,0.00
2019-05-22T00:52:37.474Z,0.00
2019-05-22T00:53:37.467Z,0.00
2019-05-22T00:54:37.452Z,0.00
2019-05-22T00:55:37.445Z,0.00
2019-05-22T00:56:37.453Z,0.00
2019-05-22T00:57:37.422Z,0.00
2019-05-22T00:58:37.407Z,0.00
2019-05-22T00:59:37.397Z,0.00
2019-05-22T01:00:37.388Z,0.00
2019-05-22T01:01:37.402Z,0.00
2019-05-22T01:02:37.367Z,0.00
2019-05-22T01:03:37.366Z,0.00
2019-05-22T01:04:37.343Z,0.00
2019-05-22T01:05:37.330Z,0.00
2019-05-22T01:06:37.344Z,0.00
2019-05-22T01:07:37.346Z,0.00
2019-05-22T01:08:37.297Z,0.00
2019-05-22T01:09:37.287Z,0.00
2019-05-22T01:10:37.278Z,0.00
2019-05-22T01:11:37.264Z,0.00
2019-05-22T01:12:37.274Z,0.00
2019-05-22T01:13:37.243Z,0.00
2019-05-22T01:14:43.014Z,0.00
2019-05-22T01:15:38.218Z,0.00
2019-05-22T01:16:37.219Z,0.00
2019-05-22T01:17:37.219Z,0.00
2019-05-22T01:18:37.187Z,0.00
2019-05-22T01:19:37.178Z,0.00
2019-05-22T01:20:37.165Z,0.00
2019-05-22T01:21:37.158Z,0.00
2019-05-22T01:22:37.164Z,0.00
2019-05-22T01:23:37.132Z,0.00
2019-05-22T01:24:37.122Z,0.00
2019-05-22T01:25:37.111Z,0.00
2019-05-22T01:26:37.098Z,0.00
2019-05-22T01:27:37.135Z,0.00
2019-05-22T01:28:37.076Z,0.00
2019-05-22T01:29:37.069Z,0.00
2019-05-22T01:30:37.057Z,0.00
2019-05-22T01:31:37.046Z,0.00
2019-05-22T01:32:37.055Z,0.00
2019-05-22T01:33:37.025Z,0.00
2019-05-22T01:34:37.011Z,0.00
2019-05-22T01:35:37.014Z,0.00
2019-05-22T01:36:36.990Z,0.00
2019-05-22T01:37:36.998Z,0.00
2019-05-22T01:38:36.966Z,0.00
2019-05-22T01:39:36.955Z,0.00
2019-05-22T01:40:36.945Z,0.00
2019-05-22T01:41:36.936Z,0.00
2019-05-22T01:42:36.943Z,0.00
2019-05-22T01:43:36.911Z,0.00
2019-05-22T01:44:36.915Z,0.00
2019-05-22T01:45:36.892Z,0.00
2019-05-22T01:46:36.882Z,0.00
2019-05-22T01:47:36.894Z,0.00
2019-05-22T01:48:36.869Z,0.00
2019-05-22T01:49:36.845Z,0.00
2019-05-22T01:50:36.838Z,0.00
2019-05-22T01:51:36.827Z,0.00
2019-05-22T01:52:36.833Z,0.00
2019-05-22T01:53:36.801Z,0.00
2019-05-22T01:54:36.793Z,0.00
2019-05-22T01:55:36.783Z,0.00
2019-05-22T01:56:36.768Z,0.00
2019-05-22T01:57:36.778Z,0.00
2019-05-22T01:58:36.781Z,0.00
2019-05-22T01:59:36.737Z,0.00
2019-05-22T02:00:36.731Z,0.00
2019-05-22T02:01:36.712Z,0.00
2019-05-22T02:02:36.702Z,0.00
2019-05-22T02:03:36.717Z,0.00
2019-05-22T02:04:36.679Z,0.00
2019-05-22T02:05:36.669Z,0.00
2019-05-22T02:06:36.663Z,0.00
2019-05-22T02:07:36.647Z,0.00
2019-05-22T02:08:36.658Z,0.00
2019-05-22T02:09:36.624Z,0.00
2019-05-22T02:10:36.625Z,0.00
2019-05-22T02:11:36.606Z,0.00
2019-05-22T02:12:36.591Z,0.00
2019-05-22T02:13:36.602Z,0.00
2019-05-22T02:14:36.570Z,0.00
2019-05-22T02:15:36.558Z,0.00
2019-05-22T02:16:36.550Z,0.00
2019-05-22T02:17:36.542Z,0.00
2019-05-22T02:18:36.546Z,0.00
2019-05-22T02:19:36.515Z,0.00
2019-05-22T02:20:36.507Z,0.00
2019-05-22T02:21:36.492Z,0.00
2019-05-22T02:22:36.485Z,0.00
2019-05-22T02:23:36.496Z,0.00
2019-05-22T02:24:36.459Z,0.00
2019-05-22T02:25:36.448Z,0.00
2019-05-22T02:26:36.442Z,0.00
2019-05-22T02:27:36.426Z,0.00
2019-05-22T02:28:36.436Z,0.00
2019-05-22T02:29:36.408Z,0.00
2019-05-22T02:30:36.398Z,0.00
2019-05-22T02:31:36.402Z,0.00
2019-05-22T02:32:36.377Z,0.00
2019-05-22T02:33:36.382Z,0.00
2019-05-22T02:34:36.352Z,0.00
2019-05-22T02:35:36.339Z,0.00
2019-05-22T02:36:36.338Z,0.00
2019-05-22T02:37:36.320Z,0.00
2019-05-22T02:38:36.331Z,0.00
2019-05-22T02:39:36.293Z,0.00
2019-05-22T02:40:36.285Z,0.00
2019-05-22T02:41:36.273Z,0.00
2019-05-22T02:42:36.262Z,0.00
2019-05-22T02:43:36.272Z,0.00
2019-05-22T02:44:36.274Z,0.00
2019-05-22T02:45:36.228Z,0.00
2019-05-22T02:46:36.216Z,0.00
2019-05-22T02:47:36.215Z,0.00
2019-05-22T02:48:36.198Z,0.00
2019-05-22T02:49:36.204Z,0.00
2019-05-22T02:50:36.173Z,0.00
2019-05-22T02:51:36.160Z,0.00
2019-05-22T02:52:36.155Z,0.00
2019-05-22T02:53:36.140Z,0.00
2019-05-22T02:54:36.157Z,0.00
2019-05-22T02:55:36.123Z,0.00
2019-05-22T02:56:36.109Z,0.00
2019-05-22T02:57:36.093Z,0.00
2019-05-22T02:58:36.083Z,0.00
2019-05-22T02:59:36.092Z,0.00
2019-05-22T03:00:36.066Z,0.00
2019-05-22T03:01:36.053Z,0.00
2019-05-22T03:02:36.039Z,0.00
2019-05-22T03:03:36.030Z,0.00
2019-05-22T03:04:36.037Z,0.00
2019-05-22T03:05:36.006Z,0.00
2019-05-22T03:06:35.995Z,0.00
2019-05-22T03:07:35.983Z,0.00
2019-05-22T03:08:35.971Z,0.00
2019-05-22T03:09:35.985Z,0.00
2019-05-22T03:10:35.949Z,0.00
2019-05-22T03:11:35.942Z,0.00
2019-05-22T03:12:35.934Z,0.00
2019-05-22T03:13:35.919Z,0.00
2019-05-22T03:14:35.935Z,0.00
2019-05-22T03:15:35.898Z,0.00
2019-05-22T03:16:35.887Z,0.00
2019-05-22T03:17:35.873Z,0.00
2019-05-22T03:18:35.865Z,0.00
2019-05-22T03:19:35.870Z,0.00
2019-05-22T03:20:35.855Z,0.00
2019-05-22T03:21:35.830Z,0.00
2019-05-22T03:22:35.816Z,0.00
2019-05-22T03:23:35.816Z,0.00
2019-05-22T03:24:35.817Z,0.00
2019-05-22T03:25:35.787Z,0.00
2019-05-22T03:26:35.775Z,0.00
2019-05-22T03:27:35.761Z,0.00
2019-05-22T03:28:35.751Z,0.00
2019-05-22T03:29:35.740Z,0.00
2019-05-22T03:30:35.752Z,0.00
2019-05-22T03:31:35.721Z,0.00
2019-05-22T03:32:42.641Z,0.00
2019-05-22T03:33:36.725Z,0.00
2019-05-22T03:34:35.690Z,0.00
2019-05-22T03:35:35.695Z,0.00
2019-05-22T03:36:35.664Z,0.00
2019-05-22T03:37:35.651Z,0.00
2019-05-22T03:38:35.638Z,0.00
2019-05-22T03:39:35.629Z,0.00
2019-05-22T03:40:35.639Z,0.00
2019-05-22T03:41:35.605Z,4.00
2019-05-22T03:42:35.599Z,4.00
2019-05-22T03:43:35.589Z,4.00
2019-05-22T03:44:35.574Z,4.00
2019-05-22T03:45:35.587Z,4.00
2019-05-22T03:46:35.560Z,4.00
2019-05-22T03:47:35.544Z,4.00
2019-05-22T03:48:35.530Z,4.00
2019-05-22T03:49:35.520Z,4.00
2019-05-22T03:50:35.540Z,4.00
2019-05-22T03:51:35.497Z,4.00
2019-05-22T03:52:35.484Z,0.00
2019-05-22T03:53:35.475Z,4.00
2019-05-22T03:54:35.471Z,4.00
2019-05-22T03:55:35.472Z,4.00
2019-05-22T03:56:35.449Z,8.00
2019-05-22T03:57:35.436Z,8.00
2019-05-22T03:58:35.425Z,8.00
2019-05-22T03:59:35.408Z,8.00
2019-05-22T04:00:35.425Z,4.00
2019-05-22T04:01:35.393Z,8.00
2019-05-22T04:02:35.376Z,8.00
2019-05-22T04:03:35.373Z,8.00
2019-05-22T04:04:35.363Z,4.00
2019-05-22T04:05:35.363Z,4.00
2019-05-22T04:06:35.331Z,8.00
2019-05-22T04:07:35.325Z,8.00
2019-05-22T04:08:35.313Z,8.00
2019-05-22T04:09:35.302Z,12.00
2019-05-22T04:10:35.325Z,8.00
2019-05-22T04:11:35.277Z,8.00
2019-05-22T04:12:35.269Z,8.00
2019-05-22T04:13:35.254Z,8.00
2019-05-22T04:14:35.244Z,8.00
2019-05-22T04:15:35.255Z,12.00
2019-05-22T04:16:35.230Z,12.00
2019-05-22T04:17:35.210Z,12.00
2019-05-22T04:18:35.202Z,16.00
2019-05-22T04:19:48.289Z,12.00
2019-05-22T04:20:36.203Z,16.00
2019-05-22T04:21:35.172Z,16.00
2019-05-22T04:22:35.158Z,16.00
2019-05-22T04:23:35.147Z,16.00
2019-05-22T04:24:35.131Z,16.00
2019-05-22T04:25:35.147Z,16.00
2019-05-22T04:26:35.139Z,20.00
2019-05-22T04:27:35.099Z,20.00
2019-05-22T04:28:35.089Z,24.00
2019-05-22T04:29:35.085Z,24.00
2019-05-22T04:30:35.065Z,24.00
2019-05-22T04:31:35.084Z,24.00
2019-05-22T04:32:35.110Z,28.00
2019-05-22T04:33:35.033Z,28.00
2019-05-22T04:34:35.021Z,28.00
2019-05-22T04:35:35.010Z,28.00
2019-05-22T04:36:35.022Z,28.00
2019-05-22T04:37:34.993Z,28.00
2019-05-22T04:38:34.977Z,24.00
2019-05-22T04:39:34.968Z,36.00
2019-05-22T04:40:34.958Z,28.00
2019-05-22T04:41:34.966Z,32.00
2019-05-22T04:42:34.935Z,36.00
2019-05-22T04:43:34.921Z,28.00
2019-05-22T04:44:34.916Z,40.00
2019-05-22T04:45:34.923Z,36.00
2019-05-22T04:46:34.896Z,40.00
2019-05-22T04:47:34.903Z,48.00
2019-05-22T04:48:34.868Z,56.00
2019-05-22T04:49:34.856Z,60.00
2019-05-22T04:50:34.853Z,60.00
2019-05-22T04:51:34.837Z,56.00
2019-05-22T04:52:34.844Z,52.00
2019-05-22T04:53:34.812Z,48.00
2019-05-22T04:54:34.800Z,44.00
2019-05-22T04:55:34.810Z,44.00
2019-05-22T04:56:34.782Z,52.00
2019-05-22T04:57:34.789Z,56.00
2019-05-22T04:58:34.760Z,56.00
2019-05-22T04:59:34.748Z,56.00
2019-05-22T05:00:34.738Z,60.00
2019-05-22T05:01:34.727Z,64.00
2019-05-22T05:02:34.737Z,64.00
2019-05-22T05:03:34.705Z,64.00
2019-05-22T05:04:34.692Z,64.00
2019-05-22T05:05:34.683Z,60.00
2019-05-22T05:06:34.669Z,60.00
2019-05-22T05:07:34.678Z,68.00
2019-05-22T05:08:34.652Z,64.00
2019-05-22T05:09:34.634Z,72.00
2019-05-22T05:10:34.651Z,72.00
2019-05-22T05:11:34.613Z,80.00
2019-05-22T05:12:34.626Z,84.00
2019-05-22T05:13:34.606Z,76.00
2019-05-22T05:14:34.579Z,80.00
2019-05-22T05:15:37.236Z,84.00
2019-05-22T05:16:34.557Z,92.00
2019-05-22T05:17:34.568Z,88.00
2019-05-22T05:18:34.537Z,92.00
2019-05-22T05:19:34.528Z,92.00
2019-05-22T05:20:34.513Z,104.00
2019-05-22T05:21:34.504Z,116.00
2019-05-22T05:22:34.517Z,108.00
2019-05-22T05:23:34.479Z,108.00
2019-05-22T05:24:34.558Z,112.00
2019-05-22T05:25:34.459Z,112.00
2019-05-22T05:26:34.456Z,152.00
2019-05-22T05:27:34.457Z,184.00
2019-05-22T05:28:34.432Z,192.00
2019-05-22T05:29:34.413Z,196.00
2019-05-22T05:30:34.403Z,188.00
2019-05-22T05:31:34.392Z,244.00
2019-05-22T05:32:34.409Z,252.00
2019-05-22T05:33:34.369Z,256.00
2019-05-22T05:34:34.358Z,256.00
2019-05-22T05:35:34.353Z,268.00
2019-05-22T05:36:34.340Z,264.00
2019-05-22T05:37:34.630Z,280.00
2019-05-22T05:38:34.362Z,264.00
2019-05-22T05:39:34.310Z,264.00
2019-05-22T05:40:34.347Z,288.00
2019-05-22T05:41:34.286Z,284.00
2019-05-22T05:42:34.270Z,272.00
2019-05-22T05:43:34.281Z,284.00
2019-05-22T05:44:34.249Z,284.00
2019-05-22T05:45:34.240Z,284.00
2019-05-22T05:46:34.233Z,288.00
2019-05-22T05:47:34.218Z,288.00
2019-05-22T05:48:34.224Z,272.00
2019-05-22T05:49:34.195Z,280.00
2019-05-22T05:50:39.761Z,268.00
2019-05-22T05:51:35.170Z,288.00
2019-05-22T05:52:34.160Z,300.00
2019-05-22T05:53:34.169Z,308.00
2019-05-22T05:54:34.136Z,288.00
2019-05-22T05:55:34.126Z,292.00
2019-05-22T05:56:34.114Z,292.00
2019-05-22T05:57:34.109Z,324.00
2019-05-22T05:58:34.123Z,296.00
2019-05-22T05:59:34.087Z,304.00
2019-05-22T06:00:34.069Z,296.00
2019-05-22T06:01:34.089Z,316.00
2019-05-22T06:02:34.051Z,308.00
2019-05-22T06:03:34.057Z,304.00
2019-05-22T06:04:35.460Z,296.00
2019-05-22T06:05:34.014Z,308.00
2019-05-22T06:06:34.005Z,308.00
2019-05-22T06:07:33.992Z,300.00
2019-05-22T06:08:34.001Z,304.00
2019-05-22T06:09:33.972Z,328.00
2019-05-22T06:10:33.966Z,336.00
2019-05-22T06:11:33.951Z,336.00
2019-05-22T06:12:33.939Z,340.00
2019-05-22T06:13:33.948Z,320.00
2019-05-22T06:14:33.915Z,316.00
2019-05-22T06:15:46.368Z,328.00
2019-05-22T06:16:34.890Z,348.00
2019-05-22T06:17:33.887Z,328.00
2019-05-22T06:18:33.894Z,344.00
2019-05-22T06:19:33.861Z,352.00
2019-05-22T06:20:33.851Z,356.00
2019-05-22T06:21:33.840Z,344.00
2019-05-22T06:22:33.828Z,348.00
2019-05-22T06:23:33.838Z,348.00
2019-05-22T06:24:33.802Z,348.00
2019-05-22T06:25:33.792Z,352.00
2019-05-22T06:26:33.784Z,368.00
2019-05-22T06:27:33.769Z,364.00
2019-05-22T06:28:33.793Z,340.00
2019-05-22T06:29:33.748Z,328.00
2019-05-22T06:30:33.735Z,332.00
2019-05-22T06:31:33.726Z,340.00
2019-05-22T06:32:33.735Z,356.00
2019-05-22T06:33:33.702Z,368.00
2019-05-22T06:34:33.714Z,352.00
2019-05-22T06:35:33.680Z,348.00
2019-05-22T06:36:33.673Z,352.00
2019-05-22T06:37:33.696Z,360.00
2019-05-22T06:38:33.648Z,356.00
2019-05-22T06:39:33.658Z,328.00
2019-05-22T06:40:33.629Z,336.00
2019-05-22T06:41:33.629Z,336.00
2019-05-22T06:42:33.604Z,332.00
2019-05-22T06:43:33.592Z,340.00
2019-05-22T06:44:33.605Z,316.00
2019-05-22T06:45:35.589Z,320.00
2019-05-22T06:46:33.559Z,316.00
2019-05-22T06:47:33.547Z,332.00
2019-05-22T06:48:33.540Z,328.00
2019-05-22T06:49:33.550Z,332.00
2019-05-22T06:50:33.518Z,316.00
2019-05-22T06:51:33.504Z,328.00
2019-05-22T06:52:33.495Z,320.00
2019-05-22T06:53:33.486Z,304.00
2019-05-22T06:54:33.497Z,308.00
2019-05-22T06:55:33.458Z,312.00
2019-05-22T06:56:33.452Z,300.00
2019-05-22T06:57:33.484Z,308.00
2019-05-22T06:58:33.437Z,296.00
2019-05-22T06:59:33.448Z,296.00
2019-05-22T07:00:33.407Z,300.00
2019-05-22T07:01:33.393Z,296.00
2019-05-22T07:02:33.382Z,280.00
2019-05-22T07:03:33.376Z,280.00
2019-05-22T07:04:33.433Z,280.00
2019-05-22T07:05:33.349Z,300.00
2019-05-22T07:06:33.346Z,316.00
2019-05-22T07:07:33.332Z,312.00
2019-05-22T07:08:33.315Z,300.00
2019-05-22T07:09:33.311Z,308.00
2019-05-22T07:10:33.317Z,292.00
2019-05-22T07:11:33.308Z,316.00
2019-05-22T07:12:33.271Z,324.00
2019-05-22T07:13:33.259Z,356.00
2019-05-22T07:14:33.247Z,348.00
2019-05-22T07:15:33.272Z,344.00
2019-05-22T07:16:33.233Z,328.00
2019-05-22T07:17:33.215Z,324.00
2019-05-22T07:18:33.208Z,328.00
2019-05-22T07:19:33.199Z,336.00
2019-05-22T07:20:33.205Z,320.00
2019-05-22T07:21:34.172Z,328.00
2019-05-22T07:22:33.159Z,332.00
2019-05-22T07:23:33.166Z,336.00
2019-05-22T07:24:33.138Z,336.00
2019-05-22T07:25:33.152Z,364.00
2019-05-22T07:26:33.115Z,360.00
2019-05-22T07:27:33.107Z,336.00
2019-05-22T07:28:33.097Z,356.00
2019-05-22T07:29:33.085Z,376.00
2019-05-22T07:30:33.092Z,412.00
2019-05-22T07:31:33.075Z,408.00
2019-05-22T07:32:33.049Z,412.00
2019-05-22T07:33:33.037Z,416.00
2019-05-22T07:34:33.037Z,392.00
2019-05-22T07:35:49.768Z,396.00
2019-05-22T07:36:34.011Z,416.00
2019-05-22T07:37:32.996Z,408.00
2019-05-22T07:38:33.056Z,404.00
2019-05-22T07:39:32.972Z,412.00
2019-05-22T07:40:32.999Z,408.00
2019-05-22T07:41:32.997Z,452.00
2019-05-22T07:42:32.942Z,460.00
2019-05-22T07:43:32.926Z,428.00
2019-05-22T07:44:32.917Z,488.00
2019-05-22T07:45:32.926Z,480.00
2019-05-22T07:46:32.898Z,468.00
2019-05-22T07:47:32.967Z,484.00
2019-05-22T07:48:32.872Z,480.00
2019-05-22T07:49:32.862Z,464.00
2019-05-22T07:50:32.874Z,428.00
2019-05-22T07:51:32.845Z,424.00
2019-05-22T07:52:32.832Z,456.00
2019-05-22T07:53:32.822Z,496.00
2019-05-22T07:54:32.806Z,456.00
2019-05-22T07:55:32.822Z,484.00
2019-05-22T07:56:32.793Z,524.00
2019-05-22T07:57:32.777Z,536.00
2019-05-22T07:58:32.761Z,552.00
2019-05-22T07:59:32.754Z,580.00
2019-05-22T08:00:32.763Z,560.00
2019-05-22T08:01:32.729Z,564.00
2019-05-22T08:02:32.730Z,588.00
2019-05-22T08:03:32.712Z,640.00
2019-05-22T08:04:32.707Z,632.00
2019-05-22T08:05:32.710Z,616.00
2019-05-22T08:06:32.695Z,620.00
2019-05-22T08:07:32.677Z,628.00
2019-05-22T08:08:32.651Z,692.00
2019-05-22T08:09:32.644Z,648.00
2019-05-22T08:10:32.633Z,680.00
2019-05-22T08:11:32.639Z,616.00
2019-05-22T08:12:32.610Z,628.00
2019-05-22T08:13:32.598Z,632.00
2019-05-22T08:14:32.589Z,644.00
2019-05-22T08:15:32.575Z,648.00
2019-05-22T08:16:32.585Z,568.00
2019-05-22T08:17:32.553Z,556.00
2019-05-22T08:18:32.607Z,552.00
2019-05-22T08:19:32.539Z,480.00
2019-05-22T08:20:32.553Z,476.00
2019-05-22T08:21:32.549Z,480.00
2019-05-22T08:22:32.507Z,472.00
2019-05-22T08:23:32.489Z,536.00
2019-05-22T08:24:32.479Z,552.00
2019-05-22T08:25:32.520Z,592.00
2019-05-22T08:26:32.474Z,580.00
2019-05-22T08:27:32.447Z,624.00
2019-05-22T08:28:32.433Z,596.00
2019-05-22T08:29:32.781Z,608.00
2019-05-22T08:30:32.410Z,768.00
2019-05-22T08:31:32.421Z,784.00
2019-05-22T08:32:32.447Z,760.00
2019-05-22T08:33:32.381Z,832.00
2019-05-22T08:34:32.369Z,684.00
2019-05-22T08:35:32.358Z,596.00
2019-05-22T08:36:32.370Z,632.00
2019-05-22T08:37:32.338Z,620.00
2019-05-22T08:38:32.323Z,644.00
2019-05-22T08:39:32.313Z,756.00
2019-05-22T08:40:32.303Z,784.00
2019-05-22T08:41:32.309Z,688.00
2019-05-22T08:42:35.336Z,736.00
2019-05-22T08:43:52.344Z,752.00
2019-05-22T08:44:33.252Z,748.00
2019-05-22T08:45:32.255Z,736.00
2019-05-22T08:46:32.263Z,688.00
2019-05-22T08:47:32.227Z,740.00
2019-05-22T08:48:32.211Z,720.00
2019-05-22T08:49:32.198Z,752.00
2019-05-22T08:50:32.768Z,780.00
2019-05-22T08:51:32.202Z,796.00
2019-05-22T08:52:32.165Z,748.00
2019-05-22T08:53:45.985Z,676.00
2019-05-22T08:54:33.142Z,564.00
2019-05-22T08:55:32.155Z,612.00
2019-05-22T08:56:32.123Z,676.00
2019-05-22T08:57:32.135Z,580.00
2019-05-22T08:58:32.102Z,648.00
2019-05-22T08:59:32.087Z,804.00
2019-05-22T09:00:32.078Z,808.00
2019-05-22T09:01:32.067Z,768.00
2019-05-22T09:02:32.075Z,788.00
2019-05-22T09:03:32.046Z,864.00
2019-05-22T09:04:32.034Z,868.00
2019-05-22T09:05:32.030Z,840.00
2019-05-22T09:06:32.010Z,820.00
2019-05-22T09:07:32.025Z,868.00
2019-05-22T09:08:31.995Z,868.00
2019-05-22T09:09:31.989Z,884.00
2019-05-22T09:10:31.985Z,748.00
2019-05-22T09:11:31.955Z,828.00
2019-05-22T09:12:31.965Z,936.00
2019-05-22T09:13:31.935Z,896.00
2019-05-22T09:14:31.955Z,792.00
2019-05-22T09:15:31.915Z,700.00
2019-05-22T09:16:31.923Z,660.00
2019-05-22T09:17:31.981Z,780.00
2019-05-22T09:18:31.878Z,748.00
2019-05-22T09:19:31.869Z,680.00
2019-05-22T09:20:48.039Z,772.00
2019-05-22T09:21:32.841Z,796.00
2019-05-22T09:22:40.593Z,828.00
2019-05-22T09:23:32.825Z,844.00
2019-05-22T09:24:31.811Z,872.00
2019-05-22T09:25:31.802Z,832.00
2019-05-22T09:26:31.787Z,844.00
2019-05-22T09:27:31.803Z,928.00
2019-05-22T09:28:31.765Z,824.00
2019-05-22T09:29:31.819Z,872.00
2019-05-22T09:30:31.750Z,916.00
2019-05-22T09:31:31.736Z,932.00
2019-05-22T09:32:31.742Z,1020.00
2019-05-22T09:33:31.751Z,904.00
2019-05-22T09:34:31.705Z,868.00
2019-05-22T09:35:31.691Z,908.00
2019-05-22T09:36:31.678Z,816.00
2019-05-22T09:37:31.686Z,852.00
2019-05-22T09:38:31.705Z,836.00
2019-05-22T09:39:31.659Z,732.00
2019-05-22T09:40:31.640Z,624.00
2019-05-22T09:41:31.620Z,720.00
2019-05-22T09:42:31.656Z,568.00
2019-05-22T09:43:31.599Z,568.00
2019-05-22T09:44:31.589Z,676.00
2019-05-22T09:45:31.725Z,680.00
2019-05-22T09:46:31.583Z,812.00
2019-05-22T09:47:31.582Z,784.00
2019-05-22T09:48:31.564Z,796.00
2019-05-22T09:49:31.532Z,972.00
2019-05-22T09:50:31.524Z,952.00
2019-05-22T09:51:31.512Z,860.00
2019-05-22T09:52:31.532Z,880.00
2019-05-22T09:53:31.490Z,880.00
2019-05-22T09:54:31.476Z,928.00
2019-05-22T09:55:31.471Z,840.00
2019-05-22T09:56:31.456Z,720.00
2019-05-22T09:57:31.445Z,780.00
2019-05-22T09:58:31.456Z,732.00
2019-05-22T09:59:31.422Z,832.00
2019-05-22T10:00:31.410Z,920.00
2019-05-22T10:01:31.399Z,704.00
2019-05-22T10:02:31.387Z,704.00
2019-05-22T10:03:31.748Z,960.00
2019-05-22T10:04:31.365Z,840.00
2019-05-22T10:05:31.421Z,824.00
2019-05-22T10:06:31.348Z,616.00
2019-05-22T10:07:31.333Z,620.00
2019-05-22T10:08:31.343Z,656.00
2019-05-22T10:09:31.328Z,588.00
2019-05-22T10:10:31.299Z,548.00
2019-05-22T10:11:31.311Z,500.00
2019-05-22T10:12:31.285Z,664.00
2019-05-22T10:13:31.291Z,704.00
2019-05-22T10:14:31.259Z,828.00
2019-05-22T10:15:31.258Z,720.00
2019-05-22T10:16:31.234Z,756.00
2019-05-22T10:17:31.221Z,748.00
2019-05-22T10:18:31.236Z,716.00
2019-05-22T10:19:31.200Z,640.00
2019-05-22T10:20:31.195Z,692.00
2019-05-22T10:21:31.178Z,832.00
2019-05-22T10:22:31.170Z,908.00
2019-05-22T10:23:31.181Z,916.00
2019-05-22T10:24:31.147Z,604.00
2019-05-22T10:25:31.133Z,484.00
2019-05-22T10:26:31.126Z,400.00
2019-05-22T10:27:31.111Z,336.00
2019-05-22T10:28:31.123Z,324.00
2019-05-22T10:29:32.337Z,320.00
2019-05-22T10:30:31.109Z,348.00
2019-05-22T10:31:31.065Z,468.00
2019-05-22T10:32:32.351Z,636.00
2019-05-22T10:33:31.067Z,620.00
2019-05-22T10:34:31.034Z,408.00
2019-05-22T10:35:31.022Z,336.00
2019-05-22T10:36:31.013Z,328.00
2019-05-22T10:37:31.000Z,584.00
2019-05-22T10:38:31.028Z,680.00
2019-05-22T10:39:30.977Z,652.00
2019-05-22T10:40:30.970Z,576.00
2019-05-22T10:41:30.958Z,708.00
2019-05-22T10:42:30.946Z,672.00
2019-05-22T10:43:30.953Z,756.00
2019-05-22T10:44:30.924Z,1040.00
2019-05-22T10:45:30.918Z,1328.00
2019-05-22T10:46:30.899Z,1192.00
2019-05-22T10:47:30.895Z,1496.00
2019-05-22T10:48:30.898Z,1276.00
2019-05-22T10:49:30.939Z,1260.00
2019-05-22T10:50:30.859Z,1196.00
2019-05-22T10:51:30.844Z,1052.00
2019-05-22T10:52:30.832Z,572.00
2019-05-22T10:53:34.029Z,508.00
2019-05-22T10:54:30.812Z,480.00
2019-05-22T10:55:30.801Z,384.00
2019-05-22T10:56:30.830Z,356.00
2019-05-22T10:57:30.802Z,392.00
2019-05-22T10:58:30.770Z,460.00
2019-05-22T10:59:30.775Z,584.00
2019-05-22T11:00:30.745Z,744.00
2019-05-22T11:01:30.734Z,700.00
2019-05-22T11:02:30.721Z,708.00
2019-05-22T11:03:30.716Z,832.00
2019-05-22T11:04:30.743Z,716.00
2019-05-22T11:05:30.689Z,444.00
2019-05-22T11:06:30.678Z,372.00
2019-05-22T11:07:30.688Z,344.00
2019-05-22T11:08:34.320Z,384.00
2019-05-22T11:09:30.664Z,368.00
2019-05-22T11:10:30.634Z,372.00
2019-05-22T11:11:30.625Z,408.00
2019-05-22T11:12:30.614Z,376.00
2019-05-22T11:13:34.045Z,380.00
2019-05-22T11:14:30.609Z,380.00
2019-05-22T11:15:30.581Z,372.00
2019-05-22T11:16:30.566Z,376.00
2019-05-22T11:17:30.555Z,376.00
2019-05-22T11:18:30.545Z,372.00
2019-05-22T11:19:30.554Z,368.00
2019-05-22T11:20:30.567Z,384.00
2019-05-22T11:21:30.517Z,380.00
2019-05-22T11:22:30.505Z,368.00
2019-05-22T11:23:30.501Z,380.00
2019-05-22T11:24:30.527Z,372.00
2019-05-22T11:25:30.474Z,368.00
2019-05-22T11:26:30.454Z,376.00
2019-05-22T11:27:30.495Z,384.00
2019-05-22T11:28:30.435Z,392.00
2019-05-22T11:29:30.449Z,412.00
2019-05-22T11:30:30.414Z,412.00
2019-05-22T11:31:30.449Z,396.00
2019-05-22T11:32:30.403Z,400.00
2019-05-22T11:33:34.025Z,376.00
2019-05-22T11:34:30.535Z,404.00
2019-05-22T11:35:30.383Z,396.00
2019-05-22T11:36:30.344Z,392.00
2019-05-22T11:37:30.333Z,400.00
2019-05-22T11:38:30.326Z,400.00
2019-05-22T11:39:39.360Z,424.00
2019-05-22T11:40:31.302Z,416.00
2019-05-22T11:41:30.298Z,424.00
2019-05-22T11:42:30.278Z,496.00
2019-05-22T11:43:30.268Z,484.00
2019-05-22T11:44:30.277Z,484.00
2019-05-22T11:45:30.245Z,692.00
2019-05-22T11:46:30.240Z,616.00
2019-05-22T11:47:30.223Z,668.00
2019-05-22T11:48:30.211Z,764.00
2019-05-22T11:49:30.253Z,708.00
2019-05-22T11:50:30.190Z,608.00
2019-05-22T11:51:30.178Z,444.00
2019-05-22T11:52:30.170Z,412.00
2019-05-22T11:53:30.169Z,416.00
2019-05-22T11:54:30.145Z,420.00
2019-05-22T11:55:43.796Z,404.00
2019-05-22T11:56:31.122Z,400.00
2019-05-22T11:57:30.113Z,400.00
2019-05-22T11:58:30.155Z,396.00
2019-05-22T11:59:30.092Z,400.00
2019-05-22T12:00:30.100Z,396.00
2019-05-22T12:01:30.078Z,420.00
2019-05-22T12:02:30.059Z,416.00
2019-05-22T12:03:30.053Z,436.00
2019-05-22T12:04:46.667Z,416.00
2019-05-22T12:05:31.048Z,444.00
2019-05-22T12:06:30.047Z,604.00
2019-05-22T12:07:30.011Z,824.00
2019-05-22T12:08:30.001Z,796.00
2019-05-22T12:09:29.996Z,708.00
2019-05-22T12:10:29.990Z,548.00
2019-05-22T12:11:29.964Z,392.00
2019-05-22T12:12:30.020Z,360.00
2019-05-22T12:13:29.945Z,384.00
2019-05-22T12:14:29.930Z,408.00
2019-05-22T12:15:29.959Z,404.00
2019-05-22T12:16:30.034Z,396.00
2019-05-22T12:17:38.053Z,400.00
2019-05-22T12:18:30.880Z,400.00
2019-05-22T12:19:29.875Z,400.00
2019-05-22T12:20:29.881Z,408.00
2019-05-22T12:21:29.852Z,424.00
2019-05-22T12:22:29.838Z,448.00
2019-05-22T12:23:29.828Z,468.00
2019-05-22T12:24:36.525Z,448.00
2019-05-22T12:25:30.825Z,444.00
2019-05-22T12:26:29.795Z,460.00
2019-05-22T12:27:29.787Z,492.00
2019-05-22T12:28:29.783Z,648.00
2019-05-22T12:29:29.781Z,728.00
2019-05-22T12:30:29.793Z,916.00
2019-05-22T12:31:29.749Z,808.00
2019-05-22T12:32:29.759Z,724.00
2019-05-22T12:33:29.716Z,480.00
2019-05-22T12:34:29.711Z,392.00
2019-05-22T12:35:29.720Z,440.00
2019-05-22T12:36:29.687Z,448.00
2019-05-22T12:37:29.672Z,460.00
2019-05-22T12:38:29.665Z,528.00
2019-05-22T12:39:29.652Z,616.00
2019-05-22T12:40:29.665Z,556.00
2019-05-22T12:41:29.631Z,480.00
2019-05-22T12:42:29.622Z,428.00
2019-05-22T12:43:29.614Z,484.00
2019-05-22T12:44:29.602Z,528.00
2019-05-22T12:45:29.606Z,600.00
2019-05-22T12:46:29.574Z,684.00